Time;durP1;ratioP1;P1;durP2;ratioP2;P2;SDS_P1;SDS_P2;PMS_P1;PMS_P2;Temp;Humidity;BMP_temperature;BMP_pressure;BME280_temperature;BME280_humidity;BME280_pressure;Samples;Min_cycle;Max_cycle;Signal;HPM_P1;HPM_P2
2023/07/22 00:00:23;;;;;;;1.60;1.10;;;;;;;18.20;100.00;96958.62;110201;1241;71732;-72
2023/07/22 00:03:14;;;;;;;1.50;0.80;;;;;;;18.18;100.00;96958.13;110233;1242;69183;-69
2023/07/22 00:05:44;;;;;;;1.90;1.00;;;;;;;18.18;100.00;96957.57;110270;1242;69459;-71
2023/07/22 00:08:15;;;;;;;1.80;1.10;;;;;;;18.18;100.00;96945.77;110180;1245;59713;-70
2023/07/22 00:10:46;;;;;;;3.10;1.20;;;;;;;18.19;100.00;96934.91;110272;1242;59634;-72
2023/07/22 00:13:18;;;;;;;2.20;1.20;;;;;;;18.19;100.00;96937.40;110202;1242;70419;-71
2023/07/22 00:15:50;;;;;;;2.30;1.40;;;;;;;18.18;100.00;96940.63;110287;1240;69855;-71
2023/07/22 00:18:20;;;;;;;3.40;1.70;;;;;;;18.18;100.00;96935.22;110171;1242;68939;-70
2023/07/22 00:20:51;;;;;;;2.10;1.30;;;;;;;18.17;100.00;96927.38;110234;1241;59674;-71
2023/07/22 00:23:23;;;;;;;4.00;1.60;;;;;;;18.16;100.00;96919.54;110379;1242;59666;-71
2023/07/22 00:25:53;;;;;;;2.30;1.40;;;;;;;18.16;100.00;96929.96;110221;1241;70649;-71
2023/07/22 00:28:24;;;;;;;2.10;1.10;;;;;;;18.16;100.00;96929.79;110271;1245;69267;-70
2023/07/22 00:30:57;;;;;;;3.10;1.20;;;;;;;18.17;100.00;96919.81;110235;1242;69302;-71
2023/07/22 00:33:27;;;;;;;2.50;1.20;;;;;;;18.17;100.00;96906.27;110225;1242;59667;-72
2023/07/22 00:36:00;;;;;;;1.60;1.10;;;;;;;18.17;100.00;96912.77;110230;1243;59712;-69
2023/07/22 00:38:30;;;;;;;2.20;1.20;;;;;;;18.18;100.00;96905.92;110132;1246;70614;-72
2023/07/22 00:41:04;;;;;;;2.30;1.30;;;;;;;18.18;100.00;96904.94;110202;1242;68547;-72
2023/07/22 00:43:35;;;;;;;2.30;1.40;;;;;;;18.18;100.00;96900.46;110198;1241;68716;-69
2023/07/22 00:46:08;;;;;;;2.40;1.20;;;;;;;18.16;100.00;96906.19;110174;1242;59801;-69
2023/07/22 00:48:43;;;;;;;2.60;1.40;;;;;;;18.16;100.00;96900.03;110126;1244;59740;-69
2023/07/22 00:51:15;;;;;;;2.70;1.50;;;;;;;18.15;100.00;96897.46;110226;1243;71255;-72
2023/07/22 00:53:47;;;;;;;1.60;1.30;;;;;;;18.15;100.00;96889.12;110118;1241;70011;-70
2023/07/22 00:56:21;;;;;;;2.60;1.40;;;;;;;18.16;100.00;96897.16;110102;1241;69341;-70
2023/07/22 00:58:53;;;;;;;2.50;1.30;;;;;;;18.16;100.00;96880.09;110191;1242;59740;-69
2023/07/22 01:01:29;;;;;;;3.80;1.70;;;;;;;18.15;100.00;96874.35;110240;1242;59747;-70
2023/07/22 01:04:04;;;;;;;2.60;1.30;;;;;;;18.16;100.00;96871.96;110204;1241;71401;-69
2023/07/22 01:06:39;;;;;;;2.30;1.40;;;;;;;18.15;100.00;96873.29;110165;1242;68505;-69
2023/07/22 01:09:09;;;;;;;2.00;1.30;;;;;;;18.15;100.00;96873.61;110176;1241;68828;-70
2023/07/22 01:11:43;;;;;;;3.70;1.30;;;;;;;18.15;100.00;96875.90;110171;1249;59696;-69
2023/07/22 01:14:13;;;;;;;2.10;1.30;;;;;;;18.17;100.00;96876.10;110190;1243;59705;-72
2023/07/22 01:16:44;;;;;;;2.20;1.20;;;;;;;18.18;100.00;96883.41;110143;1242;70233;-72
2023/07/22 01:19:18;;;;;;;3.00;1.50;;;;;;;18.19;100.00;96886.08;110227;1241;68548;-70
2023/07/22 01:21:50;;;;;;;2.40;1.40;;;;;;;18.18;100.00;96886.15;110280;1242;68947;-70
2023/07/22 01:24:23;;;;;;;2.10;1.20;;;;;;;18.17;100.00;96889.98;110215;1243;59702;-70
2023/07/22 01:26:56;;;;;;;2.10;1.20;;;;;;;18.16;100.00;96888.36;110237;1241;59660;-72
2023/07/22 01:29:29;;;;;;;1.70;1.20;;;;;;;18.13;100.00;96883.83;110220;1242;71009;-72
2023/07/22 01:32:05;;;;;;;2.40;1.10;;;;;;;18.09;100.00;96879.28;110265;1243;68334;-70
2023/07/22 01:34:40;;;;;;;2.60;1.50;;;;;;;18.04;100.00;96880.88;110183;1243;68227;-72
2023/07/22 01:37:13;;;;;;;3.10;1.30;;;;;;;18.00;100.00;96877.22;110188;1242;59849;-72
2023/07/22 01:39:43;;;;;;;2.50;1.30;;;;;;;17.97;100.00;96870.74;110231;1242;59634;-71
2023/07/22 01:42:14;;;;;;;1.70;1.20;;;;;;;17.93;100.00;96874.91;110206;1243;71476;-72
2023/07/22 01:44:44;;;;;;;3.30;1.30;;;;;;;17.88;100.00;96874.23;110220;1241;67462;-71
2023/07/22 01:47:16;;;;;;;2.10;1.40;;;;;;;17.83;100.00;96877.08;110235;1242;69341;-70
2023/07/22 01:49:49;;;;;;;2.30;1.30;;;;;;;17.77;100.00;96880.33;110229;1242;59699;-71
2023/07/22 01:52:21;;;;;;;2.80;1.50;;;;;;;17.72;100.00;96877.39;110349;1241;59682;-70
2023/07/22 01:54:53;;;;;;;3.60;1.70;;;;;;;17.68;100.00;96870.90;110191;1244;70639;-69
2023/07/22 01:57:24;;;;;;;1.70;1.30;;;;;;;17.63;100.00;96866.20;110168;1245;69207;-71
2023/07/22 01:59:54;;;;;;;1.70;1.20;;;;;;;17.58;100.00;96862.64;110151;1245;69313;-69
2023/07/22 02:02:27;;;;;;;3.80;1.50;;;;;;;17.52;100.00;96864.57;110169;1244;59724;-69
2023/07/22 02:05:02;;;;;;;2.10;1.20;;;;;;;17.46;100.00;96874.55;110193;1242;59705;-68
2023/07/22 02:07:34;;;;;;;2.40;1.20;;;;;;;17.39;100.00;96876.73;110228;1243;71508;-69
2023/07/22 02:10:08;;;;;;;2.40;1.30;;;;;;;17.34;100.00;96880.15;110204;1242;68371;-69
2023/07/22 02:12:41;;;;;;;2.10;1.30;;;;;;;17.29;100.00;96883.30;110253;1241;69244;-68
2023/07/22 02:15:14;;;;;;;2.00;1.20;;;;;;;17.24;100.00;96884.13;110172;1245;59766;-71
2023/07/22 02:17:48;;;;;;;2.90;1.40;;;;;;;17.22;100.00;96886.98;110158;1245;59685;-71
2023/07/22 02:20:20;;;;;;;3.00;1.30;;;;;;;17.21;100.00;96889.27;110200;1244;71393;-71
2023/07/22 02:22:53;;;;;;;2.80;1.90;;;;;;;17.19;100.00;96896.55;110225;1242;68533;-69
2023/07/22 02:25:29;;;;;;;2.60;1.50;;;;;;;17.16;100.00;96903.50;110352;1241;68590;-72
2023/07/22 02:28:01;;;;;;;2.90;1.60;;;;;;;17.16;100.00;96908.42;110355;1241;59722;-71
2023/07/22 02:30:36;;;;;;;2.60;1.50;;;;;;;17.18;100.00;96912.17;110356;1242;59684;-71
2023/07/22 02:33:09;;;;;;;2.30;1.70;;;;;;;17.20;100.00;96904.19;110351;1241;70647;-71
2023/07/22 02:35:41;;;;;;;2.40;1.30;;;;;;;17.22;100.00;96905.38;110317;1242;69215;-70
2023/07/22 02:38:16;;;;;;;2.30;1.30;;;;;;;17.21;100.00;96910.86;110233;1244;68317;-71
2023/07/22 02:40:48;;;;;;;1.80;1.30;;;;;;;17.22;100.00;96919.11;110313;1241;59703;-71
2023/07/22 02:43:20;;;;;;;3.40;1.80;;;;;;;17.20;100.00;96919.95;110264;1242;59681;-71
2023/07/22 02:45:53;;;;;;;2.50;1.40;;;;;;;17.21;100.00;96920.64;110285;1243;71616;-71
2023/07/22 02:48:23;;;;;;;2.30;1.60;;;;;;;17.20;100.00;96915.56;110184;1241;68286;-72
2023/07/22 02:50:55;;;;;;;2.50;1.60;;;;;;;17.19;100.00;96912.31;110200;1242;68437;-70
2023/07/22 02:53:27;;;;;;;2.10;1.50;;;;;;;17.17;100.00;96918.52;110187;1243;59740;-72
2023/07/22 02:55:59;;;;;;;1.90;1.50;;;;;;;17.15;100.00;96925.48;110267;1240;60109;-72
2023/07/22 02:58:29;;;;;;;2.30;1.60;;;;;;;17.13;100.00;96929.37;110044;1244;71455;-72
2023/07/22 03:01:01;;;;;;;2.80;1.30;;;;;;;17.10;100.00;96928.09;110214;1248;67501;-71
2023/07/22 03:03:34;;;;;;;2.20;1.50;;;;;;;17.07;100.00;96919.27;110177;1244;69773;-71
2023/07/22 03:06:07;;;;;;;2.00;1.30;;;;;;;17.04;100.00;96921.51;110243;1242;59754;-71
2023/07/22 03:08:38;;;;;;;3.30;1.70;;;;;;;17.02;100.00;96919.23;110279;1242;59750;-72
2023/07/22 03:11:11;;;;;;;1.70;1.40;;;;;;;17.00;100.00;96912.80;110274;1242;70675;-71
2023/07/22 03:13:42;;;;;;;2.80;1.30;;;;;;;16.99;100.00;96909.64;110165;1240;68445;-69
2023/07/22 03:16:15;;;;;;;1.90;1.20;;;;;;;16.97;100.00;96913.33;110192;1242;68677;-71
2023/07/22 03:18:45;;;;;;;2.40;1.40;;;;;;;16.97;100.00;96919.00;110167;1245;59737;-72
2023/07/22 03:21:16;;;;;;;1.80;1.30;;;;;;;16.96;100.00;96928.76;110255;1242;59678;-70
2023/07/22 03:23:48;;;;;;;2.20;1.40;;;;;;;16.96;100.00;96925.07;110269;1241;70879;-71
2023/07/22 03:26:18;;;;;;;1.70;1.30;;;;;;;16.95;100.00;96922.89;110268;1243;69273;-71
2023/07/22 03:28:50;;;;;;;2.70;1.60;;;;;;;16.94;100.00;96928.42;110246;1242;69440;-71
2023/07/22 03:31:19;;;;;;;2.50;1.50;;;;;;;16.93;100.00;96924.30;110200;1245;59729;-71
2023/07/22 03:33:50;;;;;;;2.10;1.60;;;;;;;16.91;100.00;96926.95;110230;1242;59667;-68
2023/07/22 03:36:20;;;;;;;4.20;2.00;;;;;;;16.90;100.00;96934.26;110263;1240;69516;-70
2023/07/22 03:38:51;;;;;;;2.00;1.50;;;;;;;16.91;100.00;96931.72;110299;1240;68969;-72
2023/07/22 03:41:22;;;;;;;2.10;1.50;;;;;;;16.94;100.00;96933.48;109865;1241;558224;-70
2023/07/22 03:43:51;;;;;;;2.30;1.50;;;;;;;16.97;100.00;96938.17;110192;1247;59714;-71
2023/07/22 03:46:21;;;;;;;;;;;;;;;17.01;100.00;96938.90;110282;1242;59753;-71
2023/07/22 03:48:50;;;;;;;3.40;1.60;;;;;;;17.04;100.00;96941.75;110189;1244;70343;-71
2023/07/22 03:51:20;;;;;;;2.20;1.60;;;;;;;17.08;100.00;96938.55;110288;1242;68573;-72
2023/07/22 03:53:52;;;;;;;4.30;2.00;;;;;;;17.12;100.00;96941.83;110261;1242;69187;-70
2023/07/22 03:56:23;;;;;;;3.00;1.90;;;;;;;17.17;100.00;96939.95;110245;1242;59740;-72
2023/07/22 03:58:55;;;;;;;2.50;1.70;;;;;;;17.18;100.00;96942.24;110217;1245;59736;-71
2023/07/22 04:01:25;;;;;;;2.00;1.60;;;;;;;17.21;100.00;96938.91;110303;1241;71421;-70
2023/07/22 04:03:55;;;;;;;3.60;1.70;;;;;;;17.26;100.00;96944.56;110144;1244;69401;-71
2023/07/22 04:06:25;;;;;;;2.80;2.00;;;;;;;17.31;100.00;96943.85;110146;1244;69149;-71
2023/07/22 04:08:56;;;;;;;2.70;2.20;;;;;;;17.38;100.00;96947.15;110232;1242;59736;-71
2023/07/22 04:11:27;;;;;;;4.00;2.10;;;;;;;17.46;100.00;96956.69;110258;1243;59686;-71
2023/07/22 04:13:57;;;;;;;3.30;2.10;;;;;;;17.54;100.00;96958.64;110243;1242;71580;-71
2023/07/22 04:16:27;;;;;;;2.60;2.00;;;;;;;17.59;100.00;96962.27;110213;1240;68458;-71
2023/07/22 04:18:59;;;;;;;3.10;2.00;;;;;;;17.66;100.00;96969.87;110209;1242;68692;-71
2023/07/22 04:21:28;;;;;;;2.10;1.70;;;;;;;17.73;100.00;96967.83;110267;1242;59769;-71
2023/07/22 04:23:58;;;;;;;3.30;1.60;;;;;;;17.81;100.00;96964.13;110228;1242;59683;-72
2023/07/22 04:26:29;;;;;;;2.60;1.60;;;;;;;17.94;100.00;96964.34;110163;1241;70626;-70
2023/07/22 04:29:00;;;;;;;3.00;1.90;;;;;;;18.12;100.00;96967.31;110242;1241;68475;-71
2023/07/22 04:31:30;;;;;;;2.30;1.70;;;;;;;18.35;100.00;96967.89;110235;1240;68357;-69
2023/07/22 04:34:00;;;;;;;1.80;1.40;;;;;;;18.53;100.00;96962.57;110182;1241;59750;-69
2023/07/22 04:36:30;;;;;;;2.00;1.50;;;;;;;18.64;100.00;96964.60;110240;1242;59688;-70
2023/07/22 04:39:00;;;;;;;3.00;1.50;;;;;;;18.74;100.00;96966.30;110161;1241;70928;-69
2023/07/22 04:41:30;;;;;;;3.10;1.50;;;;;;;18.84;100.00;96970.55;110167;1241;69323;-69
2023/07/22 04:44:00;;;;;;;2.60;1.40;;;;;;;18.88;100.00;96979.23;110221;1244;68423;-71
2023/07/22 04:46:30;;;;;;;2.20;1.50;;;;;;;18.95;100.00;96982.35;110181;1243;59696;-71
2023/07/22 04:48:59;;;;;;;2.00;1.20;;;;;;;19.03;100.00;96985.87;110221;1242;59740;-69
2023/07/22 04:51:31;;;;;;;2.40;1.20;;;;;;;19.13;100.00;96977.62;110201;1242;70676;-70
2023/07/22 04:54:03;;;;;;;1.60;1.00;;;;;;;19.24;100.00;96969.27;110175;1244;69251;-70
2023/07/22 04:56:33;;;;;;;3.10;1.40;;;;;;;19.36;100.00;96971.60;110165;1242;68409;-69
2023/07/22 04:59:03;;;;;;;;;;;;;;;19.47;100.00;96976.56;110224;1244;59766;-70
2023/07/22 05:01:32;;;;;;;2.20;1.20;;;;;;;19.56;100.00;96977.95;110194;1242;59692;-69
2023/07/22 05:04:02;;;;;;;;;;;;;;;19.56;100.00;96987.69;110196;1242;71241;-68
2023/07/22 05:06:32;;;;;;;3.50;1.20;;;;;;;19.59;100.00;96984.89;110156;1243;69020;-71
2023/07/22 05:09:02;;;;;;;2.10;1.30;;;;;;;19.73;100.00;96988.56;110153;1242;69255;-70
2023/07/22 05:11:31;;;;;;;2.40;1.40;;;;;;;19.85;100.00;96992.94;110236;1242;59780;-70
2023/07/22 05:14:02;;;;;;;2.10;1.60;;;;;;;19.95;100.00;96995.86;110202;1242;59649;-69
2023/07/22 05:16:32;;;;;;;2.70;1.50;;;;;;;20.07;100.00;97002.25;110192;1242;70393;-70
2023/07/22 05:19:04;;;;;;;1.70;1.30;;;;;;;20.13;100.00;97007.53;110215;1242;69450;-70
2023/07/22 05:21:34;;;;;;;2.80;1.40;;;;;;;20.23;100.00;97011.86;110211;1245;69199;-71
2023/07/22 05:24:03;;;;;;;;;;;;;;;20.18;100.00;97007.55;110217;1240;59956;-70
2023/07/22 05:26:32;;;;;;;4.80;1.70;;;;;;;20.18;100.00;97007.43;110262;1242;59750;-71
2023/07/22 05:29:02;;;;;;;4.70;1.60;;;;;;;20.20;100.00;97017.52;110208;1242;70625;-68
2023/07/22 05:31:31;;;;;;;2.60;1.50;;;;;;;20.19;100.00;97025.00;110166;1242;69392;-68
2023/07/22 05:34:01;;;;;;;1.80;1.20;;;;;;;20.19;100.00;97031.45;110186;1242;68514;-69
2023/07/22 05:36:31;;;;;;;3.70;1.80;;;;;;;19.93;100.00;97028.71;110171;1242;59730;-70
2023/07/22 05:39:01;;;;;;;3.00;1.60;;;;;;;19.89;100.00;97027.39;110316;1242;59685;-68
2023/07/22 05:41:32;;;;;;;2.60;1.30;;;;;;;19.77;100.00;97024.09;110157;1242;71400;-70
2023/07/22 05:44:02;;;;;;;2.10;1.30;;;;;;;19.79;100.00;97017.06;110195;1240;69253;-70
2023/07/22 05:46:31;;;;;;;3.30;1.90;;;;;;;19.97;100.00;97012.66;110185;1241;68515;-68
2023/07/22 05:49:00;;;;;;;3.30;1.30;;;;;;;19.72;100.00;97010.02;110239;1242;59705;-69
2023/07/22 05:51:31;;;;;;;3.30;1.40;;;;;;;19.69;100.00;97000.84;110228;1242;59691;-72
2023/07/22 05:54:01;;;;;;;2.50;1.50;;;;;;;19.70;100.00;97000.92;110276;1247;70455;-70
2023/07/22 05:56:31;;;;;;;;;;;;;;;19.74;100.00;97001.52;110265;1244;68106;-67
2023/07/22 05:59:00;;;;;;;2.50;1.40;;;;;;;19.87;100.00;96998.27;110258;1242;68558;-70
2023/07/22 06:01:29;;;;;;;;;;;;;;;20.11;100.00;96999.16;110247;1242;59757;-69
2023/07/22 06:03:59;;;;;;;2.10;1.30;;;;;;;20.37;100.00;96999.26;110310;1242;59601;-69
2023/07/22 06:06:28;;;;;;;4.90;1.90;;;;;;;20.51;100.00;97014.89;110275;1242;71882;-67
2023/07/22 06:08:57;;;;;;;3.60;1.50;;;;;;;20.77;100.00;97014.20;110219;1242;68659;-70
2023/07/22 06:11:28;;;;;;;3.20;1.30;;;;;;;21.02;99.98;97013.27;110317;1248;68530;-70
2023/07/22 06:13:59;;;;;;;4.00;1.50;;;;;;;21.21;99.60;97018.30;110223;1241;59734;-70
2023/07/22 06:16:30;;;;;;;2.80;1.30;;;;;;;21.61;97.16;97019.68;110265;1242;59672;-71
2023/07/22 06:19:00;;;;;;;2.50;1.50;;;;;;;21.67;94.42;97019.21;110281;1242;69672;-70
2023/07/22 06:21:29;;;;;;;2.80;1.30;;;;;;;21.72;94.23;97016.14;110267;1249;69262;-71
2023/07/22 06:24:01;;;;;;;3.70;1.70;;;;;;;21.96;92.78;97016.95;110263;1240;69257;-70
2023/07/22 06:26:30;;;;;;;3.40;1.50;;;;;;;22.05;91.16;97013.18;110248;1242;59706;-70
2023/07/22 06:28:59;;;;;;;2.00;1.20;;;;;;;22.20;90.53;97013.11;110196;1245;59759;-70
2023/07/22 06:31:30;;;;;;;2.90;1.40;;;;;;;22.20;89.49;97012.05;110227;1249;71278;-71
2023/07/22 06:33:59;;;;;;;2.30;1.40;;;;;;;22.41;88.32;97022.67;110267;1242;69823;-70
2023/07/22 06:36:29;;;;;;;2.70;1.50;;;;;;;22.87;86.60;97022.58;110211;1240;69600;-71
2023/07/22 06:38:58;;;;;;;;;;;;;;;23.21;84.46;97021.02;110284;1242;59633;-71
2023/07/22 06:41:27;;;;;;;2.40;1.50;;;;;;;23.32;82.43;97027.61;110211;1242;59631;-73
2023/07/22 06:43:58;;;;;;;3.20;1.50;;;;;;;23.13;82.18;97025.67;110276;1242;71449;-69
2023/07/22 06:46:27;;;;;;;2.80;1.40;;;;;;;23.54;80.69;97028.50;110245;1242;69981;-71
2023/07/22 06:48:59;;;;;;;3.30;1.50;;;;;;;23.25;80.79;97023.23;110234;1241;69138;-71
2023/07/22 06:51:29;;;;;;;2.50;1.50;;;;;;;23.40;80.43;97029.15;110239;1241;59664;-71
2023/07/22 06:53:58;;;;;;;3.30;1.50;;;;;;;23.44;82.39;97030.96;110241;1242;59676;-70
2023/07/22 06:56:27;;;;;;;;;;;;;;;23.72;80.87;97032.55;110220;1242;70850;-72
2023/07/22 06:58:57;;;;;;;2.40;2.00;;;;;;;23.80;78.51;97032.52;110159;1243;69236;-71
2023/07/22 07:01:26;;;;;;;;;;;;;;;23.65;78.89;97038.25;110243;1241;69272;-70
2023/07/22 07:03:56;;;;;;;3.50;1.70;;;;;;;23.56;78.36;97043.14;110242;1241;59756;-71
2023/07/22 07:06:25;;;;;;;2.40;1.60;;;;;;;23.76;77.29;97047.10;110235;1242;59675;-71
2023/07/22 07:08:55;;;;;;;3.00;1.60;;;;;;;23.78;77.60;97050.39;110346;1242;71913;-70
2023/07/22 07:11:24;;;;;;;2.10;1.50;;;;;;;23.79;77.26;97050.40;110196;1242;69825;-69
2023/07/22 07:13:54;;;;;;;3.70;2.00;;;;;;;23.51;78.44;97048.64;110150;1241;69060;-68
2023/07/22 07:16:31;;;;;;;2.80;1.30;;;;;;;23.70;80.50;97050.86;110162;1244;59676;-69
2023/07/22 07:19:01;;;;;;;3.30;1.90;;;;;;;23.56;80.57;97052.05;110217;1242;59694;-69
2023/07/22 07:21:30;;;;;;;2.60;1.40;;;;;;;24.03;77.55;97057.91;110206;1242;71380;-70
2023/07/22 07:24:00;;;;;;;3.70;1.80;;;;;;;24.25;75.15;97055.17;110237;1242;68469;-72
2023/07/22 07:26:29;;;;;;;3.10;1.70;;;;;;;24.67;73.12;97063.65;110310;1242;69259;-71
2023/07/22 07:28:58;;;;;;;2.80;1.50;;;;;;;24.73;71.50;97069.64;110221;1240;59710;-72
2023/07/22 07:31:27;;;;;;;;;;;;;;;24.74;71.36;97070.05;110269;1242;59710;-71
2023/07/22 07:34:00;;;;;;;3.50;1.80;;;;;;;24.66;71.68;97070.42;110223;1241;71310;-71
2023/07/22 07:36:28;;;;;;;;;;;;;;;24.53;72.22;97076.63;110212;1241;69271;-71
2023/07/22 07:38:58;;;;;;;2.70;1.70;;;;;;;24.15;71.69;97084.05;110232;1242;69687;-69
2023/07/22 07:41:28;;;;;;;4.50;1.60;;;;;;;24.21;72.66;97083.55;110252;1241;59753;-71
2023/07/22 07:43:57;;;;;;;3.50;1.60;;;;;;;24.20;73.23;97087.13;110239;1242;59688;-71
2023/07/22 07:46:28;;;;;;;2.50;1.40;;;;;;;24.17;74.04;97089.55;110218;1247;72096;-69
2023/07/22 07:49:00;;;;;;;4.00;1.90;;;;;;;24.05;74.42;97096.98;110230;1242;68303;-71
2023/07/22 07:51:31;;;;;;;2.30;1.70;;;;;;;23.91;73.25;97101.64;110200;1242;69883;-71
2023/07/22 07:54:00;;;;;;;2.50;1.90;;;;;;;23.76;74.92;97098.13;110230;1242;59736;-71
2023/07/22 07:56:30;;;;;;;5.60;2.10;;;;;;;23.85;74.25;97096.72;110295;1241;60056;-70
2023/07/22 07:58:58;;;;;;;3.20;2.00;;;;;;;23.83;75.24;97100.04;110222;1241;71199;-71
2023/07/22 08:01:27;;;;;;;3.40;2.00;;;;;;;23.72;75.16;97094.52;110217;1241;68661;-69
2023/07/22 08:03:57;;;;;;;4.20;2.00;;;;;;;23.74;77.94;97094.89;110155;1248;69894;-72
2023/07/22 08:06:26;;;;;;;1.80;1.40;;;;;;;23.83;77.87;97093.59;110197;1241;59711;-71
2023/07/22 08:08:56;;;;;;;3.30;1.90;;;;;;;24.03;76.81;97098.88;110245;1240;59751;-72
2023/07/22 08:11:25;;;;;;;3.40;1.60;;;;;;;24.12;76.03;97102.83;110185;1241;71313;-70
2023/07/22 08:13:55;;;;;;;3.80;1.50;;;;;;;23.96;75.51;97100.14;110211;1242;69680;-69
2023/07/22 08:16:24;;;;;;;2.70;1.80;;;;;;;23.82;74.51;97098.52;110201;1242;69794;-71
2023/07/22 08:18:54;;;;;;;3.70;2.30;;;;;;;23.98;74.30;97103.88;110250;1242;59725;-70
2023/07/22 08:21:23;;;;;;;3.50;1.70;;;;;;;24.26;72.30;97099.34;110254;1241;59761;-71
2023/07/22 08:23:52;;;;;;;3.10;2.00;;;;;;;24.57;71.62;97102.89;110223;1241;72029;-70
2023/07/22 08:26:22;;;;;;;3.00;2.00;;;;;;;25.00;70.94;97096.22;110276;1240;69913;-71
2023/07/22 08:28:51;;;;;;;;;;;;;;;25.05;69.45;97100.86;110250;1242;69322;-72
2023/07/22 08:31:20;;;;;;;3.40;2.10;;;;;;;25.29;68.94;97098.04;110198;1242;59754;-69
2023/07/22 08:33:50;;;;;;;6.60;2.50;;;;;;;25.62;68.76;97096.81;110257;1241;59682;-70
2023/07/22 08:36:19;;;;;;;2.80;1.70;;;;;;;25.29;63.17;97102.65;110205;1242;70819;-70
2023/07/22 08:38:48;;;;;;;4.70;2.00;;;;;;;25.45;63.99;97093.88;110215;1242;69200;-70
2023/07/22 08:41:18;;;;;;;;;;;;;;;25.42;65.13;97102.87;110236;1242;69251;-71
2023/07/22 08:43:48;;;;;;;3.10;1.80;;;;;;;25.07;65.42;97100.48;110225;1242;59674;-70
2023/07/22 08:46:20;;;;;;;2.70;1.90;;;;;;;24.94;65.82;97103.35;110236;1240;59705;-70
2023/07/22 08:48:54;;;;;;;2.90;1.80;;;;;;;25.11;65.90;97093.66;110269;1241;70917;-70
2023/07/22 08:51:25;;;;;;;3.00;1.90;;;;;;;25.06;64.35;97101.15;110228;1242;69099;-69
2023/07/22 08:53:56;;;;;;;1.80;1.60;;;;;;;25.37;64.86;97101.38;110268;1240;69099;-70
2023/07/22 08:56:40;;;;;;;2.10;1.70;;;;;;;25.58;65.69;97106.79;110249;1243;59741;-72
2023/07/22 08:59:10;;;;;;;2.40;1.70;;;;;;;25.65;66.33;97110.91;110243;1241;59679;-69
2023/07/22 09:01:39;;;;;;;3.60;2.10;;;;;;;25.68;67.52;97119.79;110239;1240;71965;-72
2023/07/22 09:04:08;;;;;;;;;;;;;;;25.51;67.54;97127.25;110241;1241;69700;-70
2023/07/22 09:06:37;;;;;;;;;;;;;;;25.42;69.38;97133.30;110200;1242;68568;-72
2023/07/22 09:09:08;;;;;;;2.60;1.90;;;;;;;25.30;71.99;97131.86;110240;1241;59735;-71
2023/07/22 09:11:38;;;;;;;3.30;1.80;;;;;;;25.36;71.59;97127.52;110251;1242;59630;-72
2023/07/22 09:14:08;;;;;;;3.20;1.80;;;;;;;25.34;70.92;97128.64;110167;1241;72028;-70
2023/07/22 09:16:44;;;;;;;4.40;1.90;;;;;;;25.27;71.89;97133.77;110226;1242;68649;-71
2023/07/22 09:19:14;;;;;;;3.00;1.60;;;;;;;25.21;72.47;97131.40;110201;1241;69273;-70
2023/07/22 09:21:44;;;;;;;3.80;1.60;;;;;;;25.23;73.16;97132.42;110199;1242;59741;-70
2023/07/22 09:24:25;;;;;;;2.60;1.70;;;;;;;25.28;73.94;97130.34;110218;1242;59673;-68
2023/07/22 09:26:54;;;;;;;3.30;2.10;;;;;;;25.59;73.32;97127.29;110204;1242;70581;-70
2023/07/22 09:29:40;;;;;;;3.70;2.30;;;;;;;26.21;73.15;97126.82;110213;1241;69105;-71
2023/07/22 09:32:08;;;;;;;4.00;1.90;;;;;;;26.81;69.52;97122.05;110153;1244;70208;-72
2023/07/22 09:34:37;;;;;;;3.40;2.00;;;;;;;27.52;67.49;97120.77;110236;1241;59742;-72
2023/07/22 09:37:06;;;;;;;3.40;2.00;;;;;;;28.05;64.89;97121.19;110291;1242;59633;-71
2023/07/22 09:39:36;;;;;;;3.90;1.60;;;;;;;28.31;61.78;97120.47;110188;1242;72187;-69
2023/07/22 09:42:05;;;;;;;2.40;1.80;;;;;;;28.36;61.43;97125.92;110218;1241;69398;-71
2023/07/22 09:44:37;;;;;;;2.40;1.60;;;;;;;28.35;61.58;97131.90;110190;1244;69648;-71
2023/07/22 09:47:08;;;;;;;3.40;1.70;;;;;;;28.09;60.21;97131.45;110219;1242;59759;-71
2023/07/22 09:49:41;;;;;;;2.60;1.70;;;;;;;27.74;61.34;97140.23;110235;1241;59750;-69
2023/07/22 09:52:14;;;;;;;4.00;1.70;;;;;;;27.51;62.10;97146.77;110270;1242;71392;-69
2023/07/22 09:54:51;;;;;;;2.90;1.50;;;;;;;27.22;62.69;97146.27;110241;1240;69216;-68
2023/07/22 09:57:22;;;;;;;2.40;1.80;;;;;;;26.95;63.61;97149.08;110254;1242;68893;-70
2023/07/22 09:59:53;;;;;;;2.20;1.70;;;;;;;26.67;64.56;97145.88;110226;1242;59688;-71
2023/07/22 10:02:23;;;;;;;2.90;1.90;;;;;;;26.58;65.27;97146.26;110311;1241;59643;-70
2023/07/22 10:04:56;;;;;;;2.90;1.80;;;;;;;26.89;65.36;97148.93;110253;1242;71296;-70
2023/07/22 10:07:26;;;;;;;2.50;1.80;;;;;;;27.47;64.33;97148.10;110230;1242;69803;-71
2023/07/22 10:09:57;;;;;;;3.40;2.20;;;;;;;27.82;60.97;97147.30;110232;1242;69218;-71
2023/07/22 10:12:27;;;;;;;3.80;2.10;;;;;;;28.21;59.66;97147.66;110342;1242;59667;-70
2023/07/22 10:14:57;;;;;;;3.40;2.60;;;;;;;28.41;56.32;97147.96;110158;1244;59737;-71
2023/07/22 10:17:29;;;;;;;3.70;2.50;;;;;;;28.50;55.55;97146.47;110264;1242;71927;-70
2023/07/22 10:19:59;;;;;;;2.30;1.90;;;;;;;28.58;56.53;97152.47;110184;1241;69284;-71
2023/07/22 10:22:29;;;;;;;2.90;2.20;;;;;;;28.69;55.72;97152.54;110238;1242;69282;-72
2023/07/22 10:25:00;;;;;;;3.10;2.30;;;;;;;28.40;55.14;97149.80;110179;1243;59694;-72
2023/07/22 10:27:31;;;;;;;3.80;2.60;;;;;;;28.67;55.34;97156.33;110208;1242;59679;-68
2023/07/22 10:30:01;;;;;;;4.50;2.40;;;;;;;28.53;54.76;97153.06;110251;1242;71955;-72
2023/07/22 10:32:38;;;;;;;3.40;2.50;;;;;;;28.31;55.90;97152.92;110195;1244;69946;-71
2023/07/22 10:35:33;;;;;;;3.30;2.30;;;;;;;27.57;58.09;97163.40;110254;1240;69644;-71
2023/07/22 10:38:16;;;;;;;2.20;1.60;;;;;;;27.87;55.93;97159.61;110122;1244;59705;-70
2023/07/22 10:40:55;;;;;;;2.80;1.60;;;;;;;28.42;55.84;97158.31;110319;1242;59685;-71
2023/07/22 10:43:26;;;;;;;3.70;2.10;;;;;;;28.71;54.56;97159.82;110238;1242;71966;-70
2023/07/22 10:45:58;;;;;;;2.80;1.90;;;;;;;28.48;54.21;97153.99;110223;1240;69200;-70
2023/07/22 10:48:35;;;;;;;3.50;2.20;;;;;;;28.44;54.92;97149.05;110235;1242;69290;-68
2023/07/22 10:51:15;;;;;;;2.80;2.10;;;;;;;28.59;55.56;97148.55;110211;1241;59712;-71
2023/07/22 10:53:47;;;;;;;3.20;2.10;;;;;;;28.93;53.72;97158.62;110192;1240;59745;-71
2023/07/22 10:56:19;;;;;;;2.60;1.80;;;;;;;28.56;53.04;97166.84;110103;1244;71548;-71
2023/07/22 10:58:48;;;;;;;2.80;1.90;;;;;;;28.43;54.71;97167.48;110225;1242;68478;-71
2023/07/22 11:01:27;;;;;;;2.40;1.70;;;;;;;28.35;56.27;97170.65;110231;1241;69865;-71
2023/07/22 11:04:32;;;;;;;2.50;1.90;;;;;;;28.56;55.52;97176.13;110278;1242;59667;-70
2023/07/22 11:07:47;;;;;;;6.60;2.90;;;;;;;29.29;55.46;97178.67;110230;1242;59666;-70
2023/07/22 11:10:19;;;;;;;3.20;2.40;;;;;;;29.75;54.60;97174.42;110285;1240;70975;-69
2023/07/22 11:12:48;;;;;;;3.50;2.70;;;;;;;30.26;53.77;97164.86;110240;1240;68722;-71
2023/07/22 11:15:18;;;;;;;3.20;2.20;;;;;;;30.72;51.52;97164.20;110217;1243;68958;-72
2023/07/22 11:17:48;;;;;;;3.20;2.30;;;;;;;31.10;50.39;97164.67;110221;1242;59737;-70
2023/07/22 11:20:17;;;;;;;3.90;2.30;;;;;;;31.59;48.71;97162.90;110184;1241;59615;-71
2023/07/22 11:22:50;;;;;;;2.50;2.00;;;;;;;32.10;47.79;97167.39;110265;1241;70450;-71
2023/07/22 11:25:19;;;;;;;3.00;2.10;;;;;;;32.69;47.11;97165.07;110222;1242;69821;-70
2023/07/22 11:27:48;;;;;;;2.10;1.80;;;;;;;33.09;44.29;97170.58;110191;1241;69859;-72
2023/07/22 11:30:17;;;;;;;2.20;1.90;;;;;;;33.36;42.67;97169.80;110111;1244;59761;-70
2023/07/22 11:32:47;;;;;;;2.40;2.00;;;;;;;33.16;41.57;97168.81;110219;1242;59680;-71
2023/07/22 11:35:19;;;;;;;3.10;1.90;;;;;;;33.63;42.19;97164.75;110280;1242;70507;-71
2023/07/22 11:37:48;;;;;;;2.50;2.00;;;;;;;33.81;40.18;97160.64;110265;1242;69831;-72
2023/07/22 11:40:18;;;;;;;2.70;2.10;;;;;;;33.88;39.20;97155.89;110207;1240;69815;-69
2023/07/22 11:42:48;;;;;;;2.80;1.70;;;;;;;33.69;38.44;97155.49;110227;1242;59669;-70